Time;durP1;ratioP1;P1;durP2;ratioP2;P2;SDS_P1;SDS_P2;PMS_P1;PMS_P2;Temp;Humidity;BMP_temperature;BMP_pressure;BME280_temperature;BME280_humidity;BME280_pressure;Samples;Min_cycle;Max_cycle;Signal;HPM_P1;HPM_P2
2023/08/08 00:00:26;;;;;;;0.43;0.40;;;12.30;93.60;;;;;;5067221;28;20137;-75
2023/08/08 00:02:51;;;;;;;0.43;0.43;;;12.40;93.60;;;;;;5074042;28;20024;-75
2023/08/08 00:05:17;;;;;;;0.50;0.50;;;12.50;93.50;;;;;;5079337;28;20028;-75
2023/08/08 00:07:43;;;;;;;0.40;0.35;;;12.60;93.30;;;;;;5077651;28;20533;-75
2023/08/08 00:10:09;;;;;;;0.40;0.40;;;12.60;93.10;;;;;;5082681;28;20028;-75
2023/08/08 00:12:34;;;;;;;0.30;0.30;;;12.70;93.00;;;;;;5076587;28;20147;-75
2023/08/08 00:15:00;;;;;;;0.30;0.30;;;12.80;92.80;;;;;;5073692;28;20036;-74
2023/08/08 00:17:26;;;;;;;0.50;0.50;;;12.80;92.60;;;;;;5073976;28;20088;-75
2023/08/08 00:19:51;;;;;;;0.20;0.20;;;12.90;92.40;;;;;;5084075;28;20020;-74
2023/08/08 00:22:17;;;;;;;0.25;0.25;;;12.90;92.30;;;;;;5081720;28;20107;-75
2023/08/08 00:24:43;;;;;;;0.30;0.30;;;12.90;92.10;;;;;;5072184;28;20036;-75
2023/08/08 00:27:08;;;;;;;0.50;0.50;;;12.90;91.90;;;;;;5065696;28;20028;-74
2023/08/08 00:29:34;;;;;;;0.20;0.20;;;13.00;91.90;;;;;;5072903;28;20064;-75
2023/08/08 00:32:00;;;;;;;0.40;0.40;;;13.00;91.70;;;;;;5056679;28;20024;-74
2023/08/08 00:34:25;;;;;;;0.50;0.50;;;13.00;91.60;;;;;;5072541;28;20028;-75
2023/08/08 00:36:51;;;;;;;0.85;0.30;;;13.00;91.80;;;;;;5072086;28;20028;-75
2023/08/08 00:39:17;;;;;;;0.28;0.28;;;13.00;91.40;;;;;;5072581;28;20071;-76
2023/08/08 00:41:43;;;;;;;0.68;0.68;;;13.00;91.40;;;;;;5074697;28;20389;-76
2023/08/08 00:44:08;;;;;;;0.30;0.30;;;13.00;91.30;;;;;;5072755;28;20048;-75
2023/08/08 00:46:34;;;;;;;0.38;0.30;;;13.00;91.30;;;;;;5072662;28;20024;-74
2023/08/08 00:49:00;;;;;;;0.30;0.30;;;13.00;91.30;;;;;;5076568;28;20027;-76
2023/08/08 00:51:25;;;;;;;0.20;0.20;;;13.10;91.30;;;;;;5086162;28;20032;-75
2023/08/08 00:53:51;;;;;;;0.45;0.45;;;13.10;91.20;;;;;;5072425;28;20358;-75
2023/08/08 00:56:17;;;;;;;0.32;0.28;;;13.10;91.20;;;;;;5071136;28;20037;-75
2023/08/08 00:58:45;;;;;;;0.40;0.40;;;13.10;91.10;;;;;;5072586;28;20086;-74
2023/08/08 01:01:12;;;;;;;0.22;0.20;;;13.10;91.10;;;;;;5075036;28;20445;-75
2023/08/08 01:03:37;;;;;;;0.32;0.20;;;13.10;91.00;;;;;;5077065;28;20032;-75
2023/08/08 01:06:06;;;;;;;0.20;0.20;;;13.10;91.00;;;;;;5075868;28;20025;-76
2023/08/08 01:08:43;;;;;;;0.30;0.30;;;13.00;91.00;;;;;;5078486;28;20025;-75
2023/08/08 01:11:09;;;;;;;0.28;0.28;;;13.00;91.20;;;;;;5076413;28;20580;-75
2023/08/08 01:13:37;;;;;;;0.30;0.30;;;13.00;91.10;;;;;;5064128;28;20031;-75
2023/08/08 01:16:04;;;;;;;0.30;0.30;;;13.00;91.00;;;;;;5059947;28;20027;-75
2023/08/08 01:18:32;;;;;;;0.32;0.30;;;12.90;91.00;;;;;;5075936;28;20040;-75
2023/08/08 01:20:59;;;;;;;0.32;0.32;;;12.90;91.40;;;;;;5084113;28;20028;-75
2023/08/08 01:23:43;;;;;;;0.50;0.40;;;12.90;91.20;;;;;;5076394;28;20035;-75
2023/08/08 01:26:09;;;;;;;0.68;0.60;;;12.90;91.20;;;;;;5075855;28;20103;-75
2023/08/08 01:28:35;;;;;;;0.50;0.50;;;12.80;91.20;;;;;;5075384;28;20074;-75
2023/08/08 01:31:01;;;;;;;0.80;0.50;;;12.80;91.30;;;;;;5076413;28;20069;-75
2023/08/08 01:33:27;;;;;;;0.40;0.40;;;12.70;91.30;;;;;;5076057;28;20481;-75
2023/08/08 01:36:15;;;;;;;0.98;0.32;;;12.70;91.50;;;;;;5094540;28;20121;-75
2023/08/08 01:38:43;;;;;;;0.40;0.40;;;12.70;91.50;;;;;;5075639;28;20093;-76
2023/08/08 01:41:09;;;;;;;0.35;0.32;;;12.60;91.70;;;;;;5090989;28;20411;-75
2023/08/08 01:43:39;;;;;;;0.63;0.50;;;12.60;91.70;;;;;;5091734;28;20036;-75
2023/08/08 01:46:05;;;;;;;0.40;0.40;;;12.50;91.80;;;;;;5084364;28;20153;-75
2023/08/08 01:48:31;;;;;;;0.93;0.47;;;12.50;91.90;;;;;;5081817;28;20040;-75
2023/08/08 01:50:57;;;;;;;0.45;0.40;;;12.40;92.00;;;;;;5093417;28;20051;-75
2023/08/08 01:53:22;;;;;;;0.32;0.32;;;12.30;92.10;;;;;;5075673;28;20024;-75
2023/08/08 01:55:48;;;;;;;0.30;0.30;;;12.30;92.20;;;;;;5074923;28;20020;-75
2023/08/08 01:58:14;;;;;;;0.40;0.40;;;12.20;92.30;;;;;;5073827;28;20024;-74
2023/08/08 02:00:41;;;;;;;0.75;0.50;;;12.20;92.50;;;;;;5075508;28;20073;-75
2023/08/08 02:03:07;;;;;;;0.57;0.43;;;12.10;92.50;;;;;;5068963;28;20129;-75
2023/08/08 02:05:32;;;;;;;0.30;0.30;;;12.10;92.60;;;;;;5074727;28;20063;-75
2023/08/08 02:07:58;;;;;;;0.30;0.30;;;12.00;92.70;;;;;;5073579;28;20032;-76
2023/08/08 02:10:24;;;;;;;0.43;0.43;;;12.00;92.90;;;;;;5073159;28;20028;-76
2023/08/08 02:12:49;;;;;;;0.30;0.28;;;12.00;92.90;;;;;;5075317;28;20484;-76
2023/08/08 02:15:15;;;;;;;0.63;0.50;;;12.00;93.00;;;;;;5061182;28;20055;-76
2023/08/08 02:17:40;;;;;;;0.30;0.30;;;12.00;93.10;;;;;;5069434;28;20075;-75
2023/08/08 02:20:08;;;;;;;0.30;0.30;;;12.00;93.10;;;;;;5086342;28;20051;-74
2023/08/08 02:22:34;;;;;;;0.40;0.30;;;12.00;93.20;;;;;;5078553;28;20032;-76
2023/08/08 02:25:00;;;;;;;0.50;0.45;;;12.00;93.20;;;;;;5074758;28;20074;-75
2023/08/08 02:27:25;;;;;;;0.45;0.38;;;12.00;93.50;;;;;;5075487;28;20024;-76
2023/08/08 02:29:51;;;;;;;0.22;0.20;;;12.00;93.20;;;;;;5073153;28;20029;-75
2023/08/08 02:32:17;;;;;;;1.02;0.50;;;11.90;93.10;;;;;;5060714;28;20021;-75
2023/08/08 02:34:42;;;;;;;0.70;0.45;;;11.90;93.10;;;;;;5071415;28;20013;-74
2023/08/08 02:37:08;;;;;;;0.45;0.40;;;11.90;93.10;;;;;;5074888;28;20083;-76
2023/08/08 02:39:34;;;;;;;0.45;0.38;;;11.80;93.20;;;;;;5074635;28;20108;-76
2023/08/08 02:41:59;;;;;;;0.20;0.20;;;11.80;93.30;;;;;;5075172;28;20433;-75
2023/08/08 02:44:25;;;;;;;0.88;0.40;;;11.70;93.30;;;;;;5074244;28;20176;-75
2023/08/08 02:46:51;;;;;;;0.20;0.20;;;11.70;93.50;;;;;;5074898;28;20052;-75
2023/08/08 02:49:16;;;;;;;0.32;0.32;;;11.70;93.50;;;;;;5082611;28;20031;-75
2023/08/08 02:51:42;;;;;;;0.50;0.40;;;11.60;93.70;;;;;;5078450;28;20033;-75
2023/08/08 02:54:07;;;;;;;0.32;0.32;;;11.70;93.70;;;;;;5073727;28;20020;-75
2023/08/08 02:56:33;;;;;;;0.47;0.30;;;11.60;93.70;;;;;;5076361;28;20020;-75
2023/08/08 02:58:59;;;;;;;0.30;0.30;;;11.60;93.60;;;;;;5087841;28;20612;-76
2023/08/08 03:01:24;;;;;;;0.40;0.40;;;11.60;93.60;;;;;;5077742;28;20526;-75
2023/08/08 03:03:50;;;;;;;0.50;0.30;;;11.60;93.60;;;;;;5073503;28;20335;-75
2023/08/08 03:06:16;;;;;;;0.38;0.30;;;11.60;93.60;;;;;;5071542;28;20032;-76
2023/08/08 03:08:41;;;;;;;0.32;0.32;;;11.60;93.60;;;;;;5071256;28;20028;-76
2023/08/08 03:11:07;;;;;;;0.20;0.20;;;11.60;93.60;;;;;;5074117;28;20060;-74
2023/08/08 03:13:33;;;;;;;0.43;0.30;;;11.50;93.60;;;;;;5092491;28;20052;-76
2023/08/08 03:15:58;;;;;;;0.25;0.25;;;11.50;93.70;;;;;;5073826;28;20060;-75
2023/08/08 03:18:25;;;;;;;0.20;0.20;;;11.50;93.70;;;;;;5073683;28;20039;-77
2023/08/08 03:20:52;;;;;;;0.30;0.30;;;11.50;93.70;;;;;;5089960;28;20077;-74
2023/08/08 03:23:18;;;;;;;0.77;0.30;;;11.70;93.70;;;;;;5083553;28;20138;-75
2023/08/08 03:25:43;;;;;;;0.30;0.30;;;11.70;93.60;;;;;;5071655;28;20477;-74
2023/08/08 03:28:09;;;;;;;0.25;0.20;;;11.80;93.40;;;;;;5074098;28;20099;-76
2023/08/08 03:30:37;;;;;;;0.20;0.20;;;11.90;93.30;;;;;;5082919;28;20040;-76
2023/08/08 03:33:03;;;;;;;0.10;0.10;;;12.00;93.10;;;;;;5082027;28;20027;-76
2023/08/08 03:35:29;;;;;;;0.30;0.30;;;12.00;93.20;;;;;;5073769;28;20016;-75
2023/08/08 03:37:55;;;;;;;0.20;0.20;;;12.10;92.90;;;;;;5070187;28;20035;-75
2023/08/08 03:40:20;;;;;;;0.30;0.25;;;12.10;92.70;;;;;;5065662;28;20414;-75
2023/08/08 03:42:46;;;;;;;0.13;0.13;;;12.10;92.70;;;;;;5090827;28;20072;-76
2023/08/08 03:45:12;;;;;;;0.10;0.10;;;12.10;92.60;;;;;;5076682;28;20311;-76
2023/08/08 03:47:37;;;;;;;0.15;0.15;;;12.10;92.60;;;;;;5073380;28;20043;-75
2023/08/08 03:50:05;;;;;;;0.13;0.13;;;12.10;92.70;;;;;;5082351;28;20173;-76
2023/08/08 03:52:31;;;;;;;0.20;0.20;;;12.20;92.70;;;;;;5083921;28;20020;-76
2023/08/08 03:54:56;;;;;;;0.30;0.30;;;12.20;92.60;;;;;;5079731;28;20416;-75
2023/08/08 03:57:22;;;;;;;0.20;0.20;;;12.20;92.50;;;;;;5074274;28;20080;-75
2023/08/08 03:59:48;;;;;;;0.30;0.30;;;12.30;92.50;;;;;;5064159;28;20029;-75
2023/08/08 04:02:13;;;;;;;0.52;0.52;;;12.30;92.30;;;;;;5062785;28;20079;-75
2023/08/08 04:04:39;;;;;;;0.70;0.30;;;12.30;92.30;;;;;;5078209;28;20025;-75
2023/08/08 04:07:05;;;;;;;0.40;0.30;;;12.40;92.20;;;;;;5082654;28;20055;-76
2023/08/08 04:09:31;;;;;;;0.30;0.30;;;12.40;92.00;;;;;;5072877;28;20021;-75
2023/08/08 04:11:56;;;;;;;0.40;0.40;;;12.40;92.00;;;;;;5059015;28;20013;-76
2023/08/08 04:14:22;;;;;;;0.73;0.43;;;12.40;91.90;;;;;;5072276;28;20055;-75
2023/08/08 04:16:48;;;;;;;0.40;0.40;;;12.50;91.90;;;;;;5070188;28;20450;-74
2023/08/08 04:19:14;;;;;;;0.20;0.20;;;12.50;91.80;;;;;;5067671;28;20028;-75
2023/08/08 04:21:39;;;;;;;0.73;0.22;;;12.50;91.70;;;;;;5079603;28;20029;-75
2023/08/08 04:24:07;;;;;;;0.30;0.28;;;12.60;91.80;;;;;;5074529;28;20029;-76
2023/08/08 04:26:33;;;;;;;0.20;0.20;;;12.60;91.70;;;;;;5072342;28;20020;-76
2023/08/08 04:28:59;;;;;;;0.30;0.30;;;12.60;91.60;;;;;;5066995;28;20027;-76
2023/08/08 04:31:25;;;;;;;0.30;0.30;;;12.70;91.90;;;;;;5075236;28;20060;-75
2023/08/08 04:33:52;;;;;;;0.30;0.30;;;12.70;91.50;;;;;;5067036;28;20361;-75
2023/08/08 04:36:18;;;;;;;0.28;0.28;;;12.70;91.50;;;;;;5074247;28;20431;-75
2023/08/08 04:38:43;;;;;;;0.30;0.30;;;12.80;91.50;;;;;;5071841;28;20108;-76
2023/08/08 04:41:09;;;;;;;0.30;0.30;;;12.80;91.50;;;;;;5075065;28;20024;-75
2023/08/08 04:43:35;;;;;;;0.40;0.40;;;12.90;91.50;;;;;;5076072;28;20044;-75
2023/08/08 04:46:00;;;;;;;0.45;0.40;;;12.90;91.40;;;;;;5071145;23;20141;-79
2023/08/08 04:48:26;;;;;;;0.40;0.30;;;13.00;91.30;;;;;;4979295;28;20043;-79
2023/08/08 04:50:51;;;;;;;1.00;0.40;;;13.00;91.30;;;;;;4979683;28;20022;-80
2023/08/08 04:53:17;;;;;;;0.30;0.30;;;13.00;91.20;;;;;;4960746;28;20031;-79
2023/08/08 04:55:43;;;;;;;0.40;0.40;;;13.10;91.20;;;;;;4959215;28;20028;-80
2023/08/08 04:58:09;;;;;;;0.35;0.35;;;13.10;91.10;;;;;;4976720;28;20102;-81
2023/08/08 05:00:35;;;;;;;0.50;0.38;;;13.10;91.10;;;;;;4978824;28;20373;-80
2023/08/08 05:03:01;;;;;;;0.30;0.30;;;13.20;91.10;;;;;;4970943;28;20031;-78
2023/08/08 05:05:27;;;;;;;0.40;0.40;;;13.20;91.10;;;;;;4959017;28;20034;-79
2023/08/08 05:07:52;;;;;;;0.43;0.43;;;13.30;91.20;;;;;;4972749;28;20062;-79
2023/08/08 05:10:18;;;;;;;1.75;0.43;;;13.40;91.10;;;;;;4977123;28;20464;-80
2023/08/08 05:12:43;;;;;;;0.95;0.40;;;13.40;91.00;;;;;;4978022;28;20027;-82
2023/08/08 05:15:09;;;;;;;0.60;0.47;;;13.40;90.90;;;;;;4976890;28;20019;-80
2023/08/08 05:17:35;;;;;;;0.40;0.40;;;13.40;90.90;;;;;;4972830;28;20035;-79
2023/08/08 05:20:01;;;;;;;0.40;0.40;;;13.50;91.00;;;;;;4969612;28;20437;-80
2023/08/08 05:22:26;;;;;;;0.40;0.40;;;13.50;91.10;;;;;;4959040;28;20031;-80
2023/08/08 05:24:52;;;;;;;0.50;0.50;;;13.60;91.10;;;;;;4959624;28;20231;-80
2023/08/08 05:27:18;;;;;;;0.68;0.43;;;13.70;91.00;;;;;;4957247;29;20027;-80
2023/08/08 05:29:43;;;;;;;0.55;0.55;;;13.80;90.70;;;;;;4958940;28;20067;-80
2023/08/08 05:32:09;;;;;;;0.60;0.60;;;13.80;90.60;;;;;;4957564;28;20114;-80
2023/08/08 05:34:35;;;;;;;0.75;0.60;;;13.90;90.50;;;;;;4958722;28;20050;-78
2023/08/08 05:37:01;;;;;;;0.68;0.45;;;13.90;90.80;;;;;;4960137;28;20090;-80
2023/08/08 05:39:26;;;;;;;0.55;0.40;;;14.00;90.40;;;;;;4960864;28;20031;-81
2023/08/08 05:41:52;;;;;;;0.50;0.50;;;14.10;90.30;;;;;;4963965;28;20027;-81
2023/08/08 05:44:18;;;;;;;0.50;0.50;;;14.30;90.20;;;;;;4978294;28;20567;-80
2023/08/08 05:46:43;;;;;;;0.30;0.30;;;14.50;89.60;;;;;;4975211;28;20042;-79
2023/08/08 05:49:09;;;;;;;0.95;0.50;;;14.70;89.10;;;;;;4975586;28;20028;-80
2023/08/08 05:51:35;;;;;;;0.60;0.60;;;14.90;88.40;;;;;;4965296;28;20023;-79
2023/08/08 05:54:01;;;;;;;0.60;0.57;;;15.20;87.20;;;;;;4981698;28;20030;-80
2023/08/08 05:56:37;;;;;;;0.40;0.40;;;15.40;85.90;;;;;;4980687;28;20047;-80
2023/08/08 05:59:03;;;;;;;0.70;0.60;;;15.60;84.90;;;;;;4971202;28;20037;-80
2023/08/08 06:01:30;;;;;;;1.58;0.75;;;15.80;83.60;;;;;;4981398;28;20121;-80
2023/08/08 06:03:58;;;;;;;0.68;0.50;;;15.80;82.80;;;;;;4981763;28;20492;-78
2023/08/08 06:06:23;;;;;;;0.50;0.50;;;15.80;82.50;;;;;;4981461;28;20023;-81
2023/08/08 06:08:49;;;;;;;0.73;0.70;;;15.80;82.30;;;;;;4981349;28;20087;-80
2023/08/08 06:11:15;;;;;;;0.40;0.40;;;16.00;82.60;;;;;;4983440;28;20391;-80
2023/08/08 06:13:40;;;;;;;0.50;0.50;;;17.20;81.90;;;;;;4983630;28;20506;-79
2023/08/08 06:16:06;;;;;;;0.77;0.77;;;19.10;76.00;;;;;;4985943;28;20380;-78
2023/08/08 06:18:35;;;;;;;0.25;0.25;;;19.90;71.60;;;;;;4973368;28;20506;-79
2023/08/08 06:21:02;;;;;;;1.58;0.50;;;19.90;68.40;;;;;;4990788;28;20023;-80
2023/08/08 06:23:27;;;;;;;0.45;0.45;;;19.40;68.70;;;;;;4993308;28;20026;-81
2023/08/08 06:25:53;;;;;;;0.50;0.50;;;20.10;69.30;;;;;;4981949;28;20054;-79
2023/08/08 06:28:19;;;;;;;0.50;0.50;;;21.30;66.80;;;;;;4992085;28;20057;-77
2023/08/08 06:30:45;;;;;;;0.70;0.70;;;22.30;63.00;;;;;;4995892;28;20007;-79
2023/08/08 06:33:11;;;;;;;0.50;0.50;;;22.80;60.50;;;;;;4996121;28;20019;-78
2023/08/08 06:35:37;;;;;;;0.50;0.50;;;23.10;59.20;;;;;;4980213;28;20043;-77
2023/08/08 06:38:03;;;;;;;0.90;0.90;;;23.20;58.10;;;;;;4993612;28;20027;-80
2023/08/08 06:40:28;;;;;;;1.65;0.60;;;23.10;58.00;;;;;;4985508;28;20066;-77
2023/08/08 06:42:55;;;;;;;0.50;0.50;;;23.00;57.70;;;;;;4987469;28;20067;-79
2023/08/08 06:45:21;;;;;;;0.52;0.52;;;23.00;57.60;;;;;;4979246;28;20062;-80
2023/08/08 06:47:46;;;;;;;0.35;0.35;;;22.70;57.50;;;;;;4968452;28;20614;-82
2023/08/08 06:50:12;;;;;;;0.60;0.60;;;22.20;58.00;;;;;;4962262;28;20119;-80
2023/08/08 06:52:38;;;;;;;0.45;0.35;;;22.20;59.10;;;;;;4978210;28;20070;-79
2023/08/08 06:55:04;;;;;;;0.52;0.52;;;22.50;58.70;;;;;;4964256;28;20054;-80
2023/08/08 06:57:33;;;;;;;0.30;0.30;;;22.90;57.60;;;;;;4965732;28;20055;-79
2023/08/08 06:59:58;;;;;;;0.50;0.50;;;23.30;56.90;;;;;;4971074;28;20396;-80
2023/08/08 07:02:24;;;;;;;0.40;0.40;;;23.50;56.30;;;;;;4960449;28;20073;-80
2023/08/08 07:04:50;;;;;;;0.50;0.50;;;23.40;56.00;;;;;;4959269;28;20072;-79
2023/08/08 07:07:16;;;;;;;0.60;0.60;;;23.20;55.70;;;;;;4958086;28;20039;-78
2023/08/08 07:09:42;;;;;;;0.55;0.55;;;22.30;56.70;;;;;;4962276;28;20106;-80
2023/08/08 07:12:08;;;;;;;0.57;0.57;;;;;;;;;;4980159;28;20479;-81
2023/08/08 07:14:33;;;;;;;0.88;0.88;;;19.90;60.70;;;;;;4981254;28;20030;-80
2023/08/08 07:16:59;;;;;;;0.70;0.60;;;19.00;64.20;;;;;;4989800;28;20089;-80
2023/08/08 07:19:25;;;;;;;0.68;0.60;;;18.50;66.30;;;;;;4981873;28;20034;-78
2023/08/08 07:21:51;;;;;;;1.58;0.73;;;18.20;67.70;;;;;;4995756;28;20034;-79
2023/08/08 07:24:17;;;;;;;1.27;0.65;;;17.90;68.30;;;;;;4995431;28;20023;-77
2023/08/08 07:26:42;;;;;;;1.08;0.68;;;17.70;68.90;;;;;;4976318;28;20035;-78
2023/08/08 07:29:08;;;;;;;0.75;0.70;;;17.50;69.60;;;;;;4968973;28;20042;-80
2023/08/08 07:31:34;;;;;;;1.02;0.90;;;17.40;70.40;;;;;;4961494;28;20078;-78
2023/08/08 07:34:00;;;;;;;1.70;0.77;;;17.40;70.70;;;;;;4960057;28;20038;-80
2023/08/08 07:36:25;;;;;;;0.95;0.77;;;17.40;70.80;;;;;;4976636;28;20022;-80
2023/08/08 07:38:51;;;;;;;3.13;0.95;;;17.50;70.90;;;;;;4980033;28;20061;-81
2023/08/08 07:41:18;;;;;;;2.97;0.98;;;17.50;70.20;;;;;;4982073;28;20078;-80
2023/08/08 07:43:43;;;;;;;1.48;0.82;;;17.50;70.20;;;;;;4982264;28;20376;-80
2023/08/08 07:46:10;;;;;;;0.98;0.80;;;17.50;70.30;;;;;;4976843;28;20035;-80
2023/08/08 07:48:35;;;;;;;1.90;0.82;;;17.60;71.00;;;;;;4969080;28;20030;-80
2023/08/08 07:51:02;;;;;;;1.08;0.80;;;17.60;69.30;;;;;;4981214;28;20019;-80
2023/08/08 07:53:27;;;;;;;2.85;0.95;;;17.50;69.50;;;;;;4981168;28;20416;-79
2023/08/08 07:55:53;;;;;;;0.70;0.70;;;17.60;69.70;;;;;;4982828;28;20041;-79
2023/08/08 07:58:21;;;;;;;0.90;0.70;;;17.60;69.90;;;;;;4978752;28;20026;-80
2023/08/08 08:00:47;;;;;;;0.88;0.80;;;17.60;69.90;;;;;;4981341;28;20019;-79
2023/08/08 08:03:13;;;;;;;0.75;0.60;;;17.70;69.90;;;;;;4998718;28;20035;-79
2023/08/08 08:05:38;;;;;;;0.80;0.80;;;17.70;69.50;;;;;;4963432;28;20113;-79
2023/08/08 08:08:04;;;;;;;1.95;0.93;;;17.80;69.30;;;;;;4964821;28;20035;-79
2023/08/08 08:10:30;;;;;;;3.22;0.80;;;17.80;68.90;;;;;;4964919;28;20039;-81
2023/08/08 08:12:57;;;;;;;0.80;0.80;;;17.80;68.80;;;;;;4960444;28;20038;-81
2023/08/08 08:15:26;;;;;;;1.20;0.70;;;17.90;68.80;;;;;;4962786;28;20050;-80
2023/08/08 08:17:52;;;;;;;0.90;0.70;;;18.00;68.30;;;;;;4969494;28;20030;-79
2023/08/08 08:20:17;;;;;;;1.90;1.15;;;18.10;67.70;;;;;;4969079;28;20031;-80
2023/08/08 08:22:43;;;;;;;0.98;0.80;;;18.20;67.00;;;;;;4981315;28;20035;-78
2023/08/08 08:25:09;;;;;;;0.70;0.60;;;18.30;66.60;;;;;;4982533;28;20081;-78
2023/08/08 08:27:36;;;;;;;1.08;0.85;;;18.50;65.90;;;;;;4959563;28;20086;-79
2023/08/08 08:30:04;;;;;;;0.70;0.70;;;18.50;65.00;;;;;;4959217;28;20114;-78
2023/08/08 08:32:33;;;;;;;1.05;0.80;;;18.50;65.00;;;;;;4977871;28;20074;-79
2023/08/08 08:35:00;;;;;;;1.33;0.90;;;18.50;65.10;;;;;;4983595;28;20029;-77
2023/08/08 08:37:26;;;;;;;2.90;0.93;;;18.60;64.80;;;;;;4965605;28;20090;-80
2023/08/08 08:39:52;;;;;;;1.20;1.10;;;18.80;64.60;;;;;;4963887;28;20035;-79
2023/08/08 08:42:18;;;;;;;1.13;0.90;;;18.90;63.90;;;;;;4964734;28;20436;-80
2023/08/08 08:44:45;;;;;;;1.30;1.00;;;18.90;63.70;;;;;;4976275;28;20031;-78
2023/08/08 08:47:13;;;;;;;1.02;0.60;;;18.90;64.10;;;;;;4977393;28;20042;-79
2023/08/08 08:49:41;;;;;;;1.30;0.70;;;19.10;64.10;;;;;;4967628;28;20131;-80
2023/08/08 08:52:08;;;;;;;0.80;0.80;;;19.30;63.60;;;;;;4962475;28;20019;-82
2023/08/08 08:54:33;;;;;;;1.30;1.20;;;19.50;63.20;;;;;;4977881;28;20165;-78
2023/08/08 08:56:59;;;;;;;1.35;0.93;;;19.70;62.50;;;;;;4966625;28;20031;-78
2023/08/08 08:59:25;;;;;;;1.45;0.90;;;19.80;60.70;;;;;;4962573;28;20023;-79
2023/08/08 09:01:51;;;;;;;0.77;0.70;;;19.70;60.70;;;;;;4961122;28;20031;-80
2023/08/08 09:04:20;;;;;;;1.17;1.00;;;19.60;60.80;;;;;;4962346;28;20035;-80
2023/08/08 09:06:47;;;;;;;2.60;0.70;;;19.50;60.80;;;;;;4970495;28;20042;-80
2023/08/08 09:09:15;;;;;;;1.30;1.05;;;19.60;60.90;;;;;;4967089;28;20109;-81
2023/08/08 09:11:47;;;;;;;0.90;0.77;;;19.80;60.60;;;;;;4968688;29;20027;-79
2023/08/08 09:14:18;;;;;;;2.55;1.30;;;20.10;60.30;;;;;;4991683;28;20039;-78
2023/08/08 09:16:46;;;;;;;0.70;0.70;;;20.40;59.30;;;;;;4989557;28;20099;-77
2023/08/08 09:19:13;;;;;;;1.70;1.15;;;20.40;58.90;;;;;;4983915;28;20054;-79
2023/08/08 09:21:39;;;;;;;0.93;0.90;;;20.60;58.60;;;;;;4984848;28;20133;-79
2023/08/08 09:24:05;;;;;;;0.75;0.75;;;20.80;58.20;;;;;;4982815;28;20027;-79
2023/08/08 09:26:31;;;;;;;2.25;1.02;;;21.20;57.20;;;;;;4984522;28;20102;-80
2023/08/08 09:28:57;;;;;;;0.80;0.80;;;21.40;56.10;;;;;;4984359;28;20022;-80
2023/08/08 09:31:25;;;;;;;1.98;1.20;;;21.50;55.70;;;;;;4989455;28;20019;-80
2023/08/08 09:33:53;;;;;;;2.05;0.80;;;21.50;54.90;;;;;;4991227;28;20022;-78
2023/08/08 09:36:22;;;;;;;1.00;1.00;;;21.50;54.80;;;;;;4986143;28;20023;-80
2023/08/08 09:38:48;;;;;;;1.67;0.85;;;21.60;54.60;;;;;;4982902;28;20022;-80
2023/08/08 09:41:14;;;;;;;1.40;0.98;;;21.60;55.00;;;;;;4999660;28;20058;-81
2023/08/08 09:43:42;;;;;;;1.25;0.73;;;21.90;54.40;;;;;;4982211;28;20042;-81
2023/08/08 09:46:11;;;;;;;0.98;0.88;;;22.20;54.00;;;;;;4978544;28;20026;-80
2023/08/08 09:48:43;;;;;;;1.48;1.00;;;22.20;53.80;;;;;;4981580;28;20027;-80
2023/08/08 09:51:09;;;;;;;1.15;1.05;;;22.40;53.40;;;;;;4982759;28;20019;-81
2023/08/08 09:53:35;;;;;;;1.27;1.02;;;22.30;53.00;;;;;;4982912;28;20023;-79
2023/08/08 09:56:05;;;;;;;1.05;0.93;;;22.40;53.10;;;;;;4970313;28;20108;-80
2023/08/08 09:58:34;;;;;;;1.08;0.88;;;22.50;53.10;;;;;;4965971;28;20028;-80
2023/08/08 10:01:00;;;;;;;4.43;1.40;;;22.70;53.00;;;;;;4977448;28;20031;-80
2023/08/08 10:03:26;;;;;;;1.70;1.27;;;22.90;51.60;;;;;;4982377;28;20027;-80
2023/08/08 10:05:52;;;;;;;2.75;1.02;;;22.90;50.60;;;;;;4981826;28;20079;-79
2023/08/08 10:08:19;;;;;;;1.58;0.82;;;22.70;50.20;;;;;;4975751;28;20023;-80
2023/08/08 10:10:48;;;;;;;1.27;0.90;;;22.70;51.20;;;;;;4973564;28;20057;-81
2023/08/08 10:13:24;;;;;;;1.25;1.17;;;22.90;51.10;;;;;;4984384;28;20038;-79
2023/08/08 10:15:51;;;;;;;1.25;0.85;;;22.80;50.40;;;;;;4968146;28;20396;-80
2023/08/08 10:18:21;;;;;;;1.65;0.90;;;22.50;51.30;;;;;;4963493;28;20035;-81
2023/08/08 10:20:49;;;;;;;1.35;1.00;;;22.60;52.30;;;;;;4973636;28;20035;-80
2023/08/08 10:23:22;;;;;;;1.08;0.90;;;22.90;52.10;;;;;;4981856;28;20073;-81
2023/08/08 10:25:51;;;;;;;0.95;0.93;;;23.10;51.50;;;;;;4982606;28;20087;-81
2023/08/08 10:28:19;;;;;;;1.02;1.00;;;23.40;51.00;;;;;;4981948;28;20027;-80
2023/08/08 10:30:46;;;;;;;1.38;1.15;;;23.60;51.10;;;;;;4967970;28;20035;-80
2023/08/08 10:33:26;;;;;;;0.90;0.88;;;23.50;50.00;;;;;;4964007;28;20049;-80
2023/08/08 10:36:06;;;;;;;1.33;1.08;;;23.20;49.70;;;;;;4967042;28;20022;-79
2023/08/08 10:38:40;;;;;;;1.20;0.85;;;23.10;49.80;;;;;;4978363;28;20066;-79
2023/08/08 10:41:10;;;;;;;2.33;1.08;;;23.00;48.90;;;;;;4968630;28;20030;-80
2023/08/08 10:43:35;;;;;;;1.35;0.80;;;22.90;48.40;;;;;;4963092;28;20042;-80
2023/08/08 10:46:02;;;;;;;1.98;0.88;;;22.90;49.10;;;;;;4973184;28;20035;-79
2023/08/08 10:48:28;;;;;;;0.98;0.90;;;23.00;49.30;;;;;;4963318;28;20031;-80
2023/08/08 10:50:57;;;;;;;1.23;1.00;;;23.10;49.20;;;;;;4960328;28;20020;-79
2023/08/08 10:53:26;;;;;;;0.98;0.82;;;23.10;48.80;;;;;;4978414;28;20484;-80
2023/08/08 10:56:00;;;;;;;1.35;1.05;;;23.30;48.40;;;;;;4981268;28;20340;-80
2023/08/08 10:58:36;;;;;;;1.30;1.20;;;23.50;48.00;;;;;;4967794;28;20143;-79
2023/08/08 11:01:05;;;;;;;1.73;0.93;;;23.50;48.00;;;;;;4961600;28;20027;-79
2023/08/08 11:03:31;;;;;;;1.15;1.10;;;23.40;47.80;;;;;;4962061;28;20042;-80
2023/08/08 11:05:57;;;;;;;0.75;0.75;;;23.40;48.10;;;;;;4963844;28;20093;-80
2023/08/08 11:08:23;;;;;;;0.98;0.88;;;23.30;48.30;;;;;;4980819;28;20107;-79
2023/08/08 11:10:53;;;;;;;1.25;1.17;;;23.30;48.40;;;;;;4962244;28;20054;-79
2023/08/08 11:13:19;;;;;;;1.45;1.00;;;23.20;48.50;;;;;;4976213;28;20468;-81
2023/08/08 11:15:45;;;;;;;2.65;1.00;;;23.30;48.60;;;;;;4981164;28;20384;-80
2023/08/08 11:18:10;;;;;;;1.00;0.75;;;23.50;48.40;;;;;;4969747;28;20080;-79
2023/08/08 11:20:36;;;;;;;1.10;0.95;;;23.80;48.00;;;;;;4975435;28;20099;-78
2023/08/08 11:23:05;;;;;;;1.23;1.10;;;24.00;47.30;;;;;;4976938;28;20020;-78
2023/08/08 11:25:31;;;;;;;1.05;0.95;;;24.10;46.80;;;;;;4975782;28;20023;-80
2023/08/08 11:27:58;;;;;;;1.38;1.25;;;24.10;46.20;;;;;;4973492;28;20043;-81
2023/08/08 11:30:28;;;;;;;1.27;1.10;;;23.90;46.80;;;;;;4981446;28;20038;-80
2023/08/08 11:32:54;;;;;;;0.70;0.70;;;23.90;46.80;;;;;;4969244;28;20030;-79
2023/08/08 11:35:23;;;;;;;0.82;0.80;;;24.00;45.90;;;;;;4962670;28;20098;-80
2023/08/08 11:37:53;;;;;;;1.00;1.00;;;23.90;45.90;;;;;;4973115;28;20039;-80
2023/08/08 11:40:20;;;;;;;1.02;1.02;;;23.60;46.00;;;;;;4979968;28;20110;-80
2023/08/08 11:42:47;;;;;;;0.93;0.90;;;23.40;46.50;;;;;;4969067;28;20038;-80
2023/08/08 11:45:13;;;;;;;0.80;0.80;;;23.20;47.10;;;;;;4964131;28;20082;-81
2023/08/08 11:47:40;;;;;;;1.30;1.20;;;23.30;47.30;;;;;;4971936;28;20063;-79
2023/08/08 11:50:08;;;;;;;1.65;0.80;;;23.40;46.80;;;;;;4979394;28;20033;-80
2023/08/08 11:52:39;;;;;;;1.00;0.90;;;23.30;45.40;;;;;;4978789;28;20037;-79
2023/08/08 11:55:06;;;;;;;2.45;1.25;;;23.20;46.20;;;;;;4980750;28;20102;-79
2023/08/08 11:57:33;;;;;;;0.82;0.70;;;23.20;46.10;;;;;;4979816;28;20034;-80
2023/08/08 11:59:59;;;;;;;1.20;1.10;;;23.40;45.90;;;;;;4981148;28;20478;-78
2023/08/08 12:02:26;;;;;;;1.63;1.08;;;23.40;44.60;;;;;;4963825;28;20023;-79
2023/08/08 12:04:52;;;;;;;2.40;0.90;;;23.50;44.90;;;;;;4963736;28;20027;-79
2023/08/08 12:07:19;;;;;;;1.38;1.17;;;23.80;44.80;;;;;;4969294;28;20512;-80
2023/08/08 12:09:47;;;;;;;1.92;1.00;;;24.10;44.60;;;;;;4980350;28;20094;-77
2023/08/08 12:12:14;;;;;;;1.42;1.05;;;24.30;43.80;;;;;;4969565;28;20042;-79
2023/08/08 12:14:40;;;;;;;0.90;0.90;;;;;;;;;;4965795;28;20392;-80
2023/08/08 12:17:06;;;;;;;1.10;1.00;;;;;;;;;;4962867;28;20031;-80
2023/08/08 12:19:32;;;;;;;0.75;0.75;;;24.70;42.00;;;;;;4962359;28;20101;-81
2023/08/08 12:21:58;;;;;;;1.63;1.10;;;24.60;42.70;;;;;;4961558;28;20042;-82
2023/08/08 12:24:24;;;;;;;1.33;1.02;;;24.70;43.00;;;;;;4962280;28;20113;-79
2023/08/08 12:26:49;;;;;;;1.13;1.00;;;24.60;42.70;;;;;;4963319;28;20031;-80
2023/08/08 12:29:15;;;;;;;1.90;1.00;;;24.30;42.80;;;;;;4964031;28;20035;-79
2023/08/08 12:31:41;;;;;;;0.90;0.80;;;23.90;43.30;;;;;;4967687;28;20062;-80
2023/08/08 12:34:07;;;;;;;1.60;0.90;;;23.50;44.20;;;;;;4975462;28;20094;-79
2023/08/08 12:36:34;;;;;;;0.90;0.90;;;23.00;45.00;;;;;;4983520;28;20035;-79
2023/08/08 12:38:59;;;;;;;1.85;1.25;;;22.90;45.40;;;;;;4974850;28;20030;-78
2023/08/08 12:41:25;;;;;;;1.13;0.80;;;22.80;46.20;;;;;;4975630;28;20027;-78
2023/08/08 12:43:51;;;;;;;1.05;0.98;;;22.80;46.40;;;;;;4990644;28;20026;-79